createdAt,value
2022-09-21T00:01:46.608Z,6.82
2022-09-21T00:04:13.234Z,6.13
2022-09-21T00:06:39.824Z,7.32
2022-09-21T00:09:06.377Z,6.50
2022-09-21T00:11:35.320Z,5.63
2022-09-21T00:14:04.942Z,5.72
2022-09-21T00:16:31.685Z,5.97
2022-09-21T00:18:58.437Z,5.38
2022-09-21T00:21:24.941Z,6.67
2022-09-21T00:23:51.542Z,4.95
2022-09-21T00:26:20.037Z,4.93
2022-09-21T00:28:51.516Z,5.18
2022-09-21T00:31:18.091Z,6.22
2022-09-21T00:33:44.719Z,6.83
2022-09-21T00:36:14.026Z,7.35
2022-09-21T00:38:40.824Z,5.43
2022-09-21T00:41:09.830Z,5.95
2022-09-21T00:43:40.123Z,7.70
2022-09-21T00:46:15.412Z,5.10
2022-09-21T00:48:42.075Z,5.43
2022-09-21T00:51:09.191Z,6.72
2022-09-21T00:53:38.076Z,5.63
2022-09-21T00:56:05.343Z,7.20
2022-09-21T00:58:36.013Z,4.43
2022-09-21T01:01:02.854Z,4.63
2022-09-21T01:03:32.023Z,5.72
2022-09-21T01:05:58.556Z,5.53
2022-09-21T01:08:27.391Z,5.68
2022-09-21T01:11:20.696Z,4.80
2022-09-21T01:13:59.463Z,4.87
2022-09-21T01:16:35.006Z,5.88
2022-09-21T01:19:18.141Z,4.60
2022-09-21T01:21:54.139Z,4.68
2022-09-21T01:24:40.477Z,5.40
2022-09-21T01:27:47.677Z,6.23
2022-09-21T01:30:18.672Z,5.50
2022-09-21T01:32:49.350Z,5.28
2022-09-21T01:35:20.233Z,4.65
2022-09-21T01:37:52.052Z,4.70
2022-09-21T01:40:21.477Z,5.60
2022-09-21T01:42:50.089Z,7.13
2022-09-21T01:45:22.709Z,7.22
2022-09-21T01:47:50.778Z,5.20
2022-09-21T01:50:18.928Z,4.68
2022-09-21T01:52:50.036Z,6.77
2022-09-21T01:55:21.133Z,6.65
2022-09-21T01:57:54.532Z,5.70
2022-09-21T02:00:24.423Z,4.97
2022-09-21T02:02:55.591Z,5.25
2022-09-21T02:05:25.697Z,4.80
2022-09-21T02:07:53.156Z,5.05
2022-09-21T02:10:26.284Z,4.57
2022-09-21T02:12:55.621Z,6.53
2022-09-21T02:15:26.395Z,5.82
2022-09-21T02:18:04.923Z,5.60
2022-09-21T02:20:36.120Z,4.82
2022-09-21T02:23:11.509Z,5.03
2022-09-21T02:25:46.149Z,4.70
2022-09-21T02:28:19.887Z,5.20
2022-09-21T02:30:55.633Z,5.97
2022-09-21T02:33:29.329Z,4.75
2022-09-21T02:36:04.699Z,5.03
2022-09-21T02:38:35.616Z,5.78
2022-09-21T02:41:09.286Z,7.15
2022-09-21T02:43:41.614Z,5.00
2022-09-21T02:46:13.690Z,5.57
2022-09-21T02:48:47.155Z,5.60
2022-09-21T02:51:18.955Z,5.10
2022-09-21T02:53:48.131Z,6.45
2022-09-21T02:56:15.787Z,5.87
2022-09-21T02:58:47.317Z,5.35
2022-09-21T03:01:16.899Z,5.10
2022-09-21T03:03:43.653Z,5.38
2022-09-21T03:06:10.400Z,4.90
2022-09-21T03:08:36.930Z,5.43
2022-09-21T03:11:03.493Z,6.28
2022-09-21T03:13:30.002Z,5.72
2022-09-21T03:16:01.006Z,5.32
2022-09-21T03:18:29.190Z,5.63
2022-09-21T03:20:55.802Z,4.90
2022-09-21T03:23:22.682Z,6.03
2022-09-21T03:25:50.144Z,6.32
2022-09-21T03:28:16.731Z,5.53
2022-09-21T03:30:43.495Z,5.45
2022-09-21T03:33:10.453Z,5.97
2022-09-21T03:35:38.608Z,5.45
2022-09-21T03:38:05.534Z,5.78
2022-09-21T03:40:32.625Z,5.00
2022-09-21T03:42:59.318Z,5.15
2022-09-21T03:45:26.047Z,5.20
2022-09-21T03:47:55.009Z,5.15
2022-09-21T03:50:21.611Z,5.43
2022-09-21T03:52:49.495Z,5.32
2022-09-21T03:55:16.149Z,5.60
2022-09-21T03:57:42.687Z,6.30
2022-09-21T04:00:10.901Z,6.35
2022-09-21T04:02:38.718Z,6.50
2022-09-21T04:05:06.466Z,7.72
2022-09-21T04:07:34.055Z,8.43
2022-09-21T04:10:02.783Z,7.20
2022-09-21T04:12:29.368Z,9.23
2022-09-21T04:14:55.989Z,9.57
2022-09-21T04:17:22.475Z,8.25
2022-09-21T04:19:49.009Z,5.35
2022-09-21T04:22:15.606Z,9.47
2022-09-21T04:24:42.143Z,13.80
2022-09-21T04:27:11.299Z,7.57
2022-09-21T04:29:38.362Z,8.15
2022-09-21T04:32:05.812Z,9.27
2022-09-21T04:34:32.617Z,15.83
2022-09-21T04:36:59.392Z,8.77
2022-09-21T04:39:26.236Z,12.00
2022-09-21T04:41:52.730Z,8.38
2022-09-21T04:44:20.603Z,11.27
2022-09-21T04:46:47.221Z,9.03
2022-09-21T04:49:13.719Z,11.38
2022-09-21T04:51:40.283Z,11.80
2022-09-21T04:54:06.833Z,10.38
2022-09-21T04:56:33.754Z,14.20
2022-09-21T04:59:00.291Z,7.37
2022-09-21T05:01:28.381Z,8.23
2022-09-21T05:03:55.137Z,9.93
2022-09-21T05:06:21.793Z,9.93
2022-09-21T05:08:48.519Z,11.70
2022-09-21T05:11:17.667Z,10.73
2022-09-21T05:13:44.243Z,8.47
2022-09-21T05:16:11.291Z,14.05
2022-09-21T05:18:39.209Z,10.93
2022-09-21T05:21:06.080Z,13.32
2022-09-21T05:23:33.039Z,14.80
2022-09-21T05:26:00.165Z,9.03
2022-09-21T05:28:27.569Z,8.88
2022-09-21T05:31:16.731Z,9.23
2022-09-21T05:33:51.466Z,9.30
2022-09-21T05:36:36.305Z,8.45
2022-09-21T05:39:03.440Z,7.20
2022-09-21T05:41:30.675Z,8.73
2022-09-21T05:43:57.727Z,11.25
2022-09-21T05:46:37.001Z,10.32
2022-09-21T05:49:09.384Z,10.55
2022-09-21T05:51:42.080Z,8.50
2022-09-21T05:54:14.436Z,7.43
2022-09-21T05:56:48.858Z,9.57
2022-09-21T05:59:46.001Z,7.70
2022-09-21T06:02:22.109Z,8.77
2022-09-21T06:04:51.377Z,11.90
2022-09-21T06:07:18.017Z,9.40
2022-09-21T06:09:44.553Z,8.63
2022-09-21T06:12:11.153Z,11.43
2022-09-21T06:14:38.069Z,11.70
2022-09-21T06:17:04.817Z,11.57
2022-09-21T06:19:31.442Z,8.95
2022-09-21T06:21:59.307Z,12.23
2022-09-21T06:24:25.898Z,12.02
2022-09-21T06:26:52.422Z,10.57
2022-09-21T06:29:18.935Z,9.77
2022-09-21T06:31:45.469Z,10.95
2022-09-21T06:34:11.978Z,8.82
2022-09-21T06:36:38.602Z,16.35
2022-09-21T06:39:06.460Z,12.48
2022-09-21T06:41:33.003Z,11.10
2022-09-21T06:43:59.666Z,16.52
2022-09-21T06:46:26.237Z,14.02
2022-09-21T06:48:52.751Z,13.35
2022-09-21T06:51:19.283Z,18.25
2022-09-21T06:53:45.768Z,19.63
2022-09-21T06:56:14.043Z,20.17
2022-09-21T06:58:40.578Z,12.60
2022-09-21T07:01:08.647Z,19.23
2022-09-21T07:03:35.788Z,20.67
2022-09-21T07:06:02.589Z,10.27
2022-09-21T07:11:17.067Z,18.33
2022-09-21T07:13:43.568Z,19.05
2022-09-21T07:16:10.444Z,20.02
2022-09-21T07:18:43.595Z,12.33
2022-09-21T07:21:11.454Z,17.05
2022-09-21T07:23:38.238Z,14.13
2022-09-21T07:26:06.528Z,11.13
2022-09-21T07:28:34.616Z,13.13
2022-09-21T07:31:06.687Z,14.03
2022-09-21T07:33:36.047Z,11.05
2022-09-21T07:36:03.936Z,9.85
2022-09-21T07:38:30.496Z,12.50
2022-09-21T07:40:57.013Z,13.57
2022-09-21T07:43:23.638Z,11.63
2022-09-21T07:45:55.181Z,12.50
2022-09-21T07:48:22.157Z,12.32
2022-09-21T07:50:48.950Z,11.27
2022-09-21T07:53:15.770Z,15.52
2022-09-21T07:55:42.508Z,13.50
2022-09-21T07:58:09.068Z,12.10
2022-09-21T08:00:35.944Z,14.20
2022-09-21T08:03:04.452Z,12.98
2022-09-21T08:05:31.504Z,13.25
2022-09-21T08:07:58.291Z,14.77
2022-09-21T08:10:25.896Z,14.30
2022-09-21T08:12:52.402Z,31.27
2022-09-21T08:15:43.864Z,21.55
2022-09-21T08:18:07.042Z,22.10
2022-09-21T08:20:33.586Z,19.15
2022-09-21T08:23:00.156Z,14.60
2022-09-21T08:25:26.707Z,12.57
2022-09-21T08:27:57.874Z,13.38
2022-09-21T08:30:24.384Z,13.07
2022-09-21T08:32:54.690Z,34.50
2022-09-21T08:35:22.715Z,24.97
2022-09-21T08:37:49.215Z,19.73
2022-09-21T08:40:15.887Z,15.23
2022-09-21T08:42:52.763Z,15.38
2022-09-21T08:45:21.885Z,14.93
2022-09-21T08:47:51.454Z,10.73
2022-09-21T08:50:31.663Z,12.77
2022-09-21T08:53:03.567Z,10.30
2022-09-21T08:55:30.416Z,11.15
2022-09-21T08:57:57.124Z,8.60
2022-09-21T09:00:23.908Z,11.60
2022-09-21T09:03:25.021Z,13.27
2022-09-21T09:05:59.504Z,12.98
2022-09-21T09:08:59.425Z,10.15
2022-09-21T09:11:37.586Z,11.48
2022-09-21T09:14:25.503Z,11.70
2022-09-21T09:17:00.485Z,11.77
2022-09-21T09:19:37.821Z,10.90
2022-09-21T09:22:10.913Z,12.35
2022-09-21T09:24:43.432Z,13.15
2022-09-21T09:27:16.722Z,11.88
2022-09-21T09:29:49.835Z,11.33
2022-09-21T09:32:17.728Z,11.43
2022-09-21T09:34:49.297Z,11.60
2022-09-21T09:37:17.768Z,11.82
2022-09-21T09:39:51.353Z,11.43
2022-09-21T09:42:32.691Z,12.27
2022-09-21T09:45:12.369Z,11.88
2022-09-21T09:47:51.799Z,13.20
2022-09-21T09:50:24.691Z,12.35
2022-09-21T09:52:58.136Z,13.75
2022-09-21T09:55:26.661Z,12.43
2022-09-21T09:57:56.022Z,11.60
2022-09-21T10:00:22.922Z,12.02
2022-09-21T10:02:51.623Z,10.82
2022-09-21T10:05:24.333Z,11.35
2022-09-21T10:07:53.478Z,10.80
2022-09-21T10:10:30.104Z,13.13
2022-09-21T10:13:05.363Z,11.95
2022-09-21T10:15:32.284Z,11.35
2022-09-21T10:18:06.310Z,11.23
2022-09-21T10:20:33.610Z,11.00
2022-09-21T10:23:01.562Z,10.30
2022-09-21T10:25:28.271Z,10.77
2022-09-21T10:27:56.176Z,11.90
2022-09-21T10:30:35.149Z,11.20
2022-09-21T10:33:02.160Z,11.88
2022-09-21T10:35:29.073Z,10.20
2022-09-21T10:38:22.131Z,11.68
2022-09-21T10:40:49.938Z,10.48
2022-09-21T10:43:25.393Z,11.10
2022-09-21T10:45:54.603Z,11.13
2022-09-21T10:48:23.326Z,12.83
2022-09-21T10:50:51.507Z,12.35
2022-09-21T10:53:24.932Z,11.75
2022-09-21T10:56:14.540Z,13.00
2022-09-21T10:59:12.159Z,11.43
2022-09-21T11:01:44.154Z,12.83
2022-09-21T11:04:16.981Z,10.63
2022-09-21T11:06:46.491Z,11.40
2022-09-21T11:09:20.076Z,11.82
2022-09-21T11:11:52.629Z,11.20
2022-09-21T11:14:34.706Z,11.80
2022-09-21T11:17:09.739Z,10.05
2022-09-21T11:19:42.455Z,11.57
2022-09-21T11:22:16.623Z,9.05
2022-09-21T11:24:49.871Z,9.98
2022-09-21T11:27:22.567Z,12.37
2022-09-21T11:29:58.162Z,9.45
2022-09-21T11:32:49.132Z,7.25
2022-09-21T11:35:30.590Z,8.45
2022-09-21T11:38:08.711Z,8.05
2022-09-21T11:40:50.913Z,8.37
2022-09-21T11:43:33.417Z,6.82
2022-09-21T11:46:09.616Z,6.75
2022-09-21T11:48:51.089Z,7.05
2022-09-21T11:51:30.921Z,8.48
2022-09-21T11:54:18.708Z,8.40
2022-09-21T11:56:51.756Z,6.75
2022-09-21T11:59:38.084Z,7.97
2022-09-21T12:02:26.557Z,8.20
2022-09-21T12:04:58.846Z,7.20
2022-09-21T12:07:48.568Z,7.00
2022-09-21T12:10:41.120Z,5.97
2022-09-21T12:13:20.072Z,8.05
2022-09-21T12:15:56.507Z,12.43
2022-09-21T12:18:29.881Z,9.52
2022-09-21T12:21:02.265Z,6.67
2022-09-21T12:23:38.347Z,7.95
2022-09-21T12:26:06.395Z,6.78
2022-09-21T12:28:40.433Z,7.18
2022-09-21T12:31:12.265Z,5.50
2022-09-21T12:33:44.571Z,6.43
2022-09-21T12:36:13.573Z,6.53
2022-09-21T12:38:45.584Z,6.28
2022-09-21T12:41:18.116Z,4.80
2022-09-21T12:43:51.852Z,6.68
2022-09-21T12:46:21.435Z,6.33
2022-09-21T12:48:47.986Z,7.00
2022-09-21T12:51:18.536Z,4.75
2022-09-21T12:53:50.631Z,5.90
2022-09-21T12:56:29.159Z,5.47
2022-09-21T12:59:18.846Z,4.13
2022-09-21T13:01:56.900Z,3.50
2022-09-21T13:04:39.967Z,4.20
2022-09-21T13:07:29.051Z,3.92
2022-09-21T13:09:57.315Z,4.00
2022-09-21T13:12:29.326Z,6.07
2022-09-21T13:15:11.814Z,4.30
2022-09-21T13:17:38.742Z,4.22
2022-09-21T13:20:15.608Z,4.63
2022-09-21T13:22:42.298Z,4.82
2022-09-21T13:25:20.744Z,5.37
2022-09-21T13:27:59.978Z,6.22
2022-09-21T13:30:36.364Z,4.32
2022-09-21T13:33:05.407Z,5.18
2022-09-21T13:35:52.682Z,4.38
2022-09-21T13:38:26.891Z,4.63
2022-09-21T13:41:01.054Z,5.60
2022-09-21T13:44:04.258Z,5.57
2022-09-21T13:46:54.466Z,4.45
2022-09-21T13:49:40.613Z,5.35
2022-09-21T13:52:19.696Z,3.03
2022-09-21T13:54:50.848Z,3.40
2022-09-21T13:57:21.140Z,4.43
2022-09-21T13:59:59.286Z,4.20
2022-09-21T14:02:32.948Z,4.45
2022-09-21T14:05:06.453Z,5.07
2022-09-21T14:07:34.778Z,3.28
2022-09-21T14:10:03.928Z,4.28
2022-09-21T14:12:37.670Z,5.07
2022-09-21T14:15:31.980Z,4.82
2022-09-21T14:18:18.701Z,4.17
2022-09-21T14:21:10.218Z,5.50
2022-09-21T14:23:37.856Z,5.28
2022-09-21T14:26:21.149Z,6.07
2022-09-21T14:28:51.491Z,5.20
2022-09-21T14:31:22.041Z,3.77
2022-09-21T14:33:54.162Z,5.78
2022-09-21T14:36:26.322Z,3.78
2022-09-21T14:38:57.676Z,4.32
2022-09-21T14:41:25.091Z,4.60
2022-09-21T14:43:54.156Z,3.70
2022-09-21T14:46:32.048Z,5.75
2022-09-21T14:49:13.562Z,4.22
2022-09-21T14:51:55.790Z,3.97
2022-09-21T14:54:44.751Z,3.78
2022-09-21T14:57:26.087Z,4.27
2022-09-21T15:00:08.825Z,4.32
2022-09-21T15:02:36.379Z,7.95
2022-09-21T15:05:18.518Z,4.85
2022-09-21T15:07:49.230Z,5.50
2022-09-21T15:10:22.655Z,4.87
2022-09-21T15:12:55.979Z,3.90
2022-09-21T15:15:32.399Z,3.88
2022-09-21T15:18:00.456Z,3.15
2022-09-21T15:20:29.992Z,3.60
2022-09-21T15:22:57.667Z,5.20
2022-09-21T15:25:25.757Z,4.82
2022-09-21T15:27:52.720Z,5.07
2022-09-21T15:30:21.798Z,3.55
2022-09-21T15:32:52.820Z,4.57
2022-09-21T15:35:21.882Z,4.43
2022-09-21T15:37:51.436Z,4.45
2022-09-21T15:40:21.533Z,5.20
2022-09-21T15:43:02.944Z,3.88
2022-09-21T15:45:32.250Z,4.10
2022-09-21T15:47:58.883Z,6.30
2022-09-21T15:50:28.759Z,3.75
2022-09-21T15:53:01.212Z,8.07
2022-09-21T15:55:29.142Z,4.15
2022-09-21T15:57:56.573Z,5.15
2022-09-21T16:00:25.549Z,5.40
2022-09-21T16:03:02.539Z,6.47
2022-09-21T16:05:29.142Z,5.47
2022-09-21T16:08:08.025Z,7.75
2022-09-21T16:10:40.065Z,4.28
2022-09-21T16:13:12.721Z,5.23
2022-09-21T16:15:39.391Z,4.35
2022-09-21T16:18:06.150Z,5.70
2022-09-21T16:20:42.775Z,4.93
2022-09-21T16:23:17.595Z,4.65
2022-09-21T16:25:44.619Z,4.17
2022-09-21T16:28:29.949Z,4.88
2022-09-21T16:30:57.207Z,5.00
2022-09-21T16:33:41.584Z,5.43
2022-09-21T16:36:37.928Z,5.57
2022-09-21T16:39:14.309Z,4.83
2022-09-21T16:41:45.847Z,5.40
2022-09-21T16:44:15.490Z,4.78
2022-09-21T16:46:42.220Z,3.53
2022-09-21T16:49:12.836Z,4.30
2022-09-21T16:51:39.333Z,4.53
2022-09-21T16:54:07.302Z,5.28
2022-09-21T16:56:33.925Z,6.70
2022-09-21T16:59:01.299Z,5.70
2022-09-21T17:01:28.014Z,6.10
2022-09-21T17:03:54.703Z,9.27
2022-09-21T17:06:21.755Z,9.23
2022-09-21T17:08:49.906Z,7.53
2022-09-21T17:11:19.654Z,6.40
2022-09-21T17:13:46.463Z,7.50
2022-09-21T17:16:13.322Z,8.87
2022-09-21T17:18:39.899Z,9.77
2022-09-21T17:21:08.733Z,9.50
2022-09-21T17:23:35.397Z,17.88
2022-09-21T17:26:01.919Z,13.20
2022-09-21T17:28:29.808Z,7.53
2022-09-21T17:30:56.451Z,8.23
2022-09-21T17:33:23.013Z,7.70
2022-09-21T17:35:49.540Z,7.53
2022-09-21T17:38:16.092Z,7.80
2022-09-21T17:40:43.398Z,9.53
2022-09-21T17:43:31.444Z,9.73
2022-09-21T17:46:05.424Z,8.65
2022-09-21T17:48:34.152Z,12.20
2022-09-21T17:51:01.556Z,11.73
2022-09-21T17:53:28.452Z,16.40
2022-09-21T17:55:58.333Z,12.35
2022-09-21T17:58:39.335Z,9.00
2022-09-21T18:01:13.740Z,9.23
2022-09-21T18:03:41.719Z,9.00
2022-09-21T18:06:09.670Z,9.57
2022-09-21T18:08:38.069Z,8.15
2022-09-21T18:11:27.796Z,7.35
2022-09-21T18:14:01.243Z,7.45
2022-09-21T18:16:34.617Z,7.18
2022-09-21T18:19:05.563Z,8.53
2022-09-21T18:21:37.651Z,7.72
2022-09-21T18:24:16.301Z,10.15
2022-09-21T18:26:43.452Z,8.07
2022-09-21T18:29:38.896Z,8.40
2022-09-21T18:32:30.891Z,8.47
2022-09-21T18:35:14.395Z,9.27
2022-09-21T18:37:52.121Z,10.63
2022-09-21T18:40:26.658Z,24.92
2022-09-21T18:42:59.578Z,17.08
2022-09-21T18:45:28.540Z,10.20
2022-09-21T18:48:11.157Z,9.57
2022-09-21T18:50:43.488Z,11.65
2022-09-21T18:53:20.139Z,8.95
2022-09-21T18:55:47.317Z,11.18
2022-09-21T18:58:14.603Z,9.60
2022-09-21T19:00:41.916Z,8.93
2022-09-21T19:03:18.900Z,10.63
2022-09-21T19:05:58.362Z,22.15
2022-09-21T19:08:35.017Z,13.68
2022-09-21T19:11:04.576Z,10.40
2022-09-21T19:13:42.184Z,9.55
2022-09-21T19:16:19.541Z,8.55
2022-09-21T19:18:59.840Z,10.77
2022-09-21T19:21:37.888Z,19.00
2022-09-21T19:24:12.007Z,22.63
2022-09-21T19:26:48.297Z,14.05
2022-09-21T19:29:31.987Z,13.63
2022-09-21T19:31:58.849Z,9.40
2022-09-21T19:34:27.251Z,8.65
2022-09-21T19:36:54.196Z,10.40
2022-09-21T19:39:21.255Z,8.32
2022-09-21T19:41:57.623Z,11.73
2022-09-21T19:44:50.121Z,8.75
2022-09-21T19:47:26.091Z,8.38
2022-09-21T19:49:57.010Z,8.53
2022-09-21T19:52:29.334Z,7.68
2022-09-21T19:54:56.416Z,6.18
2022-09-21T19:57:23.412Z,7.50
2022-09-21T19:59:50.446Z,5.55
2022-09-21T20:02:21.112Z,6.43
2022-09-21T20:04:52.801Z,6.35
2022-09-21T20:07:36.083Z,5.70
2022-09-21T20:10:32.135Z,6.07
2022-09-21T20:13:07.776Z,7.03
2022-09-21T20:15:41.063Z,6.73
2022-09-21T20:18:14.643Z,6.85
2022-09-21T20:20:41.457Z,8.05
2022-09-21T20:23:10.829Z,6.20
2022-09-21T20:25:52.463Z,6.22
2022-09-21T20:28:19.513Z,8.33
2022-09-21T20:30:46.307Z,7.07
2022-09-21T20:33:15.074Z,6.07
2022-09-21T20:35:42.834Z,7.18
2022-09-21T20:38:10.998Z,6.38
2022-09-21T20:40:39.619Z,8.17
2022-09-21T20:43:06.711Z,7.10
2022-09-21T20:45:33.397Z,6.63
2022-09-21T20:48:00.105Z,5.68
2022-09-21T20:50:26.754Z,7.00
2022-09-21T20:52:53.289Z,7.70
2022-09-21T20:55:21.135Z,6.55
2022-09-21T20:57:47.665Z,10.15
2022-09-21T21:00:16.639Z,8.00
2022-09-21T21:02:43.383Z,7.38
2022-09-21T21:05:10.703Z,6.07
2022-09-21T21:07:37.771Z,6.88
2022-09-21T21:10:04.911Z,7.50
2022-09-21T21:12:32.813Z,5.85
2022-09-21T21:14:59.362Z,5.80
2022-09-21T21:17:25.955Z,6.40
2022-09-21T21:19:52.568Z,6.05
2022-09-21T21:22:19.098Z,6.65
2022-09-21T21:24:45.647Z,6.57
2022-09-21T21:27:14.187Z,6.30
2022-09-21T21:29:42.324Z,6.00
2022-09-21T21:32:09.170Z,6.30
2022-09-21T21:34:35.722Z,7.07
2022-09-21T21:37:02.349Z,7.00
2022-09-21T21:39:28.896Z,6.10
2022-09-21T21:41:55.385Z,5.53
2022-09-21T21:44:22.039Z,6.60
2022-09-21T21:46:49.904Z,6.20
2022-09-21T21:49:16.459Z,6.55
2022-09-21T21:51:43.215Z,7.25
2022-09-21T21:54:09.783Z,6.37
2022-09-21T21:56:36.385Z,6.50
2022-09-21T21:59:03.693Z,5.28
2022-09-21T22:01:30.346Z,6.88
2022-09-21T22:04:00.670Z,5.80
2022-09-21T22:06:28.843Z,6.80
2022-09-21T22:08:56.727Z,7.82
2022-09-21T22:11:24.056Z,6.60
2022-09-21T22:13:51.663Z,5.85
2022-09-21T22:16:19.787Z,6.20
2022-09-21T22:18:46.644Z,5.47
2022-09-21T22:21:16.535Z,6.50
2022-09-21T22:23:43.451Z,6.93
2022-09-21T22:26:12.005Z,6.38
2022-09-21T22:28:39.725Z,6.18
2022-09-21T22:31:09.599Z,6.80
2022-09-21T22:33:37.028Z,5.68
2022-09-21T22:36:05.542Z,6.60
2022-09-21T22:38:38.072Z,4.97
2022-09-21T22:41:08.669Z,6.45
2022-09-21T22:43:35.379Z,6.00
2022-09-21T22:46:02.588Z,7.55
2022-09-21T22:48:29.320Z,6.25
2022-09-21T22:50:56.466Z,6.00
2022-09-21T22:53:24.114Z,5.90
2022-09-21T22:56:03.411Z,7.30
2022-09-21T22:58:30.929Z,5.70
2022-09-21T23:01:06.600Z,5.68
2022-09-21T23:03:33.915Z,5.75
2022-09-21T23:06:01.154Z,5.95
2022-09-21T23:08:28.515Z,5.35
2022-09-21T23:10:55.526Z,6.73
2022-09-21T23:13:23.488Z,7.38
2022-09-21T23:15:50.015Z,7.03
2022-09-21T23:18:17.367Z,6.32
2022-09-21T23:20:43.888Z,6.32
2022-09-21T23:23:10.420Z,6.03
2022-09-21T23:25:36.930Z,5.53
2022-09-21T23:28:03.581Z,6.18
2022-09-21T23:30:31.441Z,7.32
2022-09-21T23:32:58.054Z,5.63
2022-09-21T23:35:24.567Z,5.57
2022-09-21T23:37:51.203Z,6.22
2022-09-21T23:40:17.758Z,9.45
2022-09-21T23:42:44.329Z,5.78
2022-09-21T23:45:10.993Z,6.50
2022-09-21T23:47:38.843Z,6.13
2022-09-21T23:50:06.446Z,5.93
2022-09-21T23:52:32.962Z,5.60
2022-09-21T23:54:59.626Z,6.47
2022-09-21T23:57:26.120Z,6.00
2022-09-21T23:59:52.672Z,6.63
